sensor_id;sensor_type;location;lat;lon;timestamp;P1;durP1;ratioP1;P2;durP2;ratioP2
29730;SDS011;16639;51.488;0.152;2023-03-09T00:01:28;43.10;;;22.80;;
29730;SDS011;16639;51.488;0.152;2023-03-09T00:03:57;49.13;;;24.77;;
29730;SDS011;16639;51.488;0.152;2023-03-09T00:06:25;48.53;;;25.42;;
29730;SDS011;16639;51.488;0.152;2023-03-09T00:08:53;45.10;;;22.50;;
29730;SDS011;16639;51.488;0.152;2023-03-09T00:11:20;47.53;;;25.00;;
29730;SDS011;16639;51.488;0.152;2023-03-09T00:13:48;47.67;;;24.33;;
29730;SDS011;16639;51.488;0.152;2023-03-09T00:16:17;111.78;;;28.65;;
29730;SDS011;16639;51.488;0.152;2023-03-09T00:18:47;43.25;;;24.10;;
29730;SDS011;16639;51.488;0.152;2023-03-09T00:21:18;48.45;;;23.90;;
29730;SDS011;16639;51.488;0.152;2023-03-09T00:24:20;49.33;;;25.05;;
29730;SDS011;16639;51.488;0.152;2023-03-09T00:26:57;44.20;;;23.65;;
29730;SDS011;16639;51.488;0.152;2023-03-09T00:29:26;46.80;;;24.35;;
29730;SDS011;16639;51.488;0.152;2023-03-09T00:31:55;44.60;;;23.55;;
29730;SDS011;16639;51.488;0.152;2023-03-09T00:34:23;50.42;;;23.80;;
29730;SDS011;16639;51.488;0.152;2023-03-09T00:36:51;44.38;;;22.13;;
29730;SDS011;16639;51.488;0.152;2023-03-09T00:39:18;45.65;;;23.40;;
29730;SDS011;16639;51.488;0.152;2023-03-09T00:41:46;50.88;;;24.77;;
29730;SDS011;16639;51.488;0.152;2023-03-09T00:44:13;46.70;;;25.25;;
29730;SDS011;16639;51.488;0.152;2023-03-09T00:46:42;46.75;;;24.60;;
29730;SDS011;16639;51.488;0.152;2023-03-09T00:49:11;49.72;;;25.73;;
29730;SDS011;16639;51.488;0.152;2023-03-09T00:51:39;50.30;;;25.63;;
29730;SDS011;16639;51.488;0.152;2023-03-09T00:54:09;173.18;;;36.40;;
29730;SDS011;16639;51.488;0.152;2023-03-09T00:56:38;57.50;;;28.33;;
29730;SDS011;16639;51.488;0.152;2023-03-09T00:59:06;53.58;;;28.45;;
29730;SDS011;16639;51.488;0.152;2023-03-09T01:01:33;54.05;;;27.08;;
29730;SDS011;16639;51.488;0.152;2023-03-09T01:04:03;48.75;;;26.52;;
29730;SDS011;16639;51.488;0.152;2023-03-09T01:06:31;48.97;;;26.27;;
29730;SDS011;16639;51.488;0.152;2023-03-09T01:08:59;54.63;;;27.35;;
29730;SDS011;16639;51.488;0.152;2023-03-09T01:11:26;55.28;;;28.17;;
29730;SDS011;16639;51.488;0.152;2023-03-09T01:13:53;60.97;;;29.85;;
29730;SDS011;16639;51.488;0.152;2023-03-09T01:16:21;52.67;;;27.55;;
29730;SDS011;16639;51.488;0.152;2023-03-09T01:18:48;55.72;;;28.55;;
29730;SDS011;16639;51.488;0.152;2023-03-09T01:21:16;54.55;;;28.63;;
29730;SDS011;16639;51.488;0.152;2023-03-09T01:23:43;50.85;;;27.65;;
29730;SDS011;16639;51.488;0.152;2023-03-09T01:26:11;46.85;;;25.15;;
29730;SDS011;16639;51.488;0.152;2023-03-09T01:28:38;45.25;;;26.80;;
29730;SDS011;16639;51.488;0.152;2023-03-09T01:31:07;45.45;;;24.65;;
29730;SDS011;16639;51.488;0.152;2023-03-09T01:33:36;49.35;;;24.75;;
29730;SDS011;16639;51.488;0.152;2023-03-09T01:36:07;49.80;;;25.33;;
29730;SDS011;16639;51.488;0.152;2023-03-09T01:38:38;54.13;;;27.80;;
29730;SDS011;16639;51.488;0.152;2023-03-09T01:41:05;46.80;;;25.60;;
29730;SDS011;16639;51.488;0.152;2023-03-09T01:43:37;49.85;;;27.55;;
29730;SDS011;16639;51.488;0.152;2023-03-09T01:48:48;49.03;;;25.25;;
29730;SDS011;16639;51.488;0.152;2023-03-09T01:51:39;50.78;;;26.60;;
29730;SDS011;16639;51.488;0.152;2023-03-09T01:54:13;49.00;;;25.58;;
29730;SDS011;16639;51.488;0.152;2023-03-09T01:56:47;59.73;;;28.33;;
29730;SDS011;16639;51.488;0.152;2023-03-09T01:59:23;86.70;;;28.85;;
29730;SDS011;16639;51.488;0.152;2023-03-09T02:01:53;53.78;;;27.40;;
29730;SDS011;16639;51.488;0.152;2023-03-09T02:04:28;61.15;;;28.98;;
29730;SDS011;16639;51.488;0.152;2023-03-09T02:07:01;57.53;;;27.70;;
29730;SDS011;16639;51.488;0.152;2023-03-09T02:09:40;53.72;;;28.52;;
29730;SDS011;16639;51.488;0.152;2023-03-09T02:12:16;51.45;;;28.55;;
29730;SDS011;16639;51.488;0.152;2023-03-09T02:14:46;55.60;;;29.05;;
29730;SDS011;16639;51.488;0.152;2023-03-09T02:17:13;51.28;;;26.98;;
29730;SDS011;16639;51.488;0.152;2023-03-09T02:19:45;50.92;;;27.40;;
29730;SDS011;16639;51.488;0.152;2023-03-09T02:22:19;58.20;;;27.88;;
29730;SDS011;16639;51.488;0.152;2023-03-09T02:27:24;114.10;;;33.20;;
29730;SDS011;16639;51.488;0.152;2023-03-09T02:29:53;58.15;;;30.48;;
29730;SDS011;16639;51.488;0.152;2023-03-09T02:32:22;51.85;;;28.27;;
29730;SDS011;16639;51.488;0.152;2023-03-09T02:34:50;101.40;;;34.60;;
29730;SDS011;16639;51.488;0.152;2023-03-09T02:39:57;67.85;;;30.50;;
29730;SDS011;16639;51.488;0.152;2023-03-09T02:42:37;60.10;;;29.02;;
29730;SDS011;16639;51.488;0.152;2023-03-09T02:45:06;59.17;;;30.13;;
29730;SDS011;16639;51.488;0.152;2023-03-09T02:47:33;58.15;;;30.85;;
29730;SDS011;16639;51.488;0.152;2023-03-09T02:50:03;53.85;;;28.30;;
29730;SDS011;16639;51.488;0.152;2023-03-09T02:52:30;57.97;;;27.92;;
29730;SDS011;16639;51.488;0.152;2023-03-09T02:54:58;53.58;;;28.10;;
29730;SDS011;16639;51.488;0.152;2023-03-09T02:57:25;51.80;;;26.83;;
29730;SDS011;16639;51.488;0.152;2023-03-09T02:59:52;53.35;;;28.63;;
29730;SDS011;16639;51.488;0.152;2023-03-09T03:02:20;51.42;;;28.08;;
29730;SDS011;16639;51.488;0.152;2023-03-09T03:04:47;52.03;;;27.73;;
29730;SDS011;16639;51.488;0.152;2023-03-09T03:07:15;51.95;;;26.35;;
29730;SDS011;16639;51.488;0.152;2023-03-09T03:09:42;59.65;;;28.77;;
29730;SDS011;16639;51.488;0.152;2023-03-09T03:12:09;56.58;;;26.70;;
29730;SDS011;16639;51.488;0.152;2023-03-09T03:14:37;49.83;;;25.73;;
29730;SDS011;16639;51.488;0.152;2023-03-09T03:17:04;50.67;;;26.88;;
29730;SDS011;16639;51.488;0.152;2023-03-09T03:19:31;50.15;;;25.88;;
29730;SDS011;16639;51.488;0.152;2023-03-09T03:21:59;45.08;;;25.95;;
29730;SDS011;16639;51.488;0.152;2023-03-09T03:24:27;46.83;;;28.48;;
29730;SDS011;16639;51.488;0.152;2023-03-09T03:26:54;44.03;;;24.40;;
29730;SDS011;16639;51.488;0.152;2023-03-09T03:29:22;48.97;;;26.92;;
29730;SDS011;16639;51.488;0.152;2023-03-09T03:31:49;50.42;;;25.95;;
29730;SDS011;16639;51.488;0.152;2023-03-09T03:34:17;49.85;;;27.80;;
29730;SDS011;16639;51.488;0.152;2023-03-09T03:36:44;237.38;;;43.58;;
29730;SDS011;16639;51.488;0.152;2023-03-09T03:39:12;51.03;;;25.73;;
29730;SDS011;16639;51.488;0.152;2023-03-09T03:41:39;48.95;;;26.70;;
29730;SDS011;16639;51.488;0.152;2023-03-09T03:44:07;55.22;;;26.85;;
29730;SDS011;16639;51.488;0.152;2023-03-09T03:46:36;52.40;;;28.05;;
29730;SDS011;16639;51.488;0.152;2023-03-09T03:49:03;48.45;;;28.08;;
29730;SDS011;16639;51.488;0.152;2023-03-09T03:51:31;49.85;;;27.58;;
29730;SDS011;16639;51.488;0.152;2023-03-09T03:53:58;47.80;;;26.08;;
29730;SDS011;16639;51.488;0.152;2023-03-09T03:56:26;49.78;;;27.10;;
29730;SDS011;16639;51.488;0.152;2023-03-09T03:58:53;48.78;;;26.25;;
29730;SDS011;16639;51.488;0.152;2023-03-09T04:01:20;82.55;;;30.20;;
29730;SDS011;16639;51.488;0.152;2023-03-09T04:03:49;46.72;;;26.65;;
29730;SDS011;16639;51.488;0.152;2023-03-09T04:06:16;55.97;;;27.00;;
29730;SDS011;16639;51.488;0.152;2023-03-09T04:08:43;45.80;;;25.92;;
29730;SDS011;16639;51.488;0.152;2023-03-09T04:11:11;50.85;;;27.02;;
29730;SDS011;16639;51.488;0.152;2023-03-09T04:13:39;47.90;;;26.17;;
29730;SDS011;16639;51.488;0.152;2023-03-09T04:16:06;49.97;;;27.48;;
29730;SDS011;16639;51.488;0.152;2023-03-09T04:18:34;45.97;;;25.52;;
29730;SDS011;16639;51.488;0.152;2023-03-09T04:21:01;47.83;;;25.77;;
29730;SDS011;16639;51.488;0.152;2023-03-09T04:23:30;45.08;;;26.35;;
29730;SDS011;16639;51.488;0.152;2023-03-09T04:25:58;42.22;;;24.27;;
29730;SDS011;16639;51.488;0.152;2023-03-09T04:28:27;44.08;;;24.75;;
29730;SDS011;16639;51.488;0.152;2023-03-09T04:30:54;48.35;;;26.15;;
29730;SDS011;16639;51.488;0.152;2023-03-09T04:33:23;43.45;;;25.85;;
29730;SDS011;16639;51.488;0.152;2023-03-09T04:35:50;85.47;;;27.15;;
29730;SDS011;16639;51.488;0.152;2023-03-09T04:38:18;37.20;;;21.90;;
29730;SDS011;16639;51.488;0.152;2023-03-09T04:40:45;39.60;;;21.98;;
29730;SDS011;16639;51.488;0.152;2023-03-09T04:43:13;37.75;;;21.70;;
29730;SDS011;16639;51.488;0.152;2023-03-09T04:45:40;32.28;;;19.58;;
29730;SDS011;16639;51.488;0.152;2023-03-09T04:48:08;34.20;;;19.73;;
29730;SDS011;16639;51.488;0.152;2023-03-09T04:50:35;32.28;;;18.73;;
29730;SDS011;16639;51.488;0.152;2023-03-09T04:53:03;39.17;;;21.25;;
29730;SDS011;16639;51.488;0.152;2023-03-09T04:55:30;36.55;;;19.52;;
29730;SDS011;16639;51.488;0.152;2023-03-09T04:57:57;39.13;;;21.42;;
29730;SDS011;16639;51.488;0.152;2023-03-09T05:00:25;40.88;;;22.15;;
29730;SDS011;16639;51.488;0.152;2023-03-09T05:02:52;41.75;;;22.65;;
29730;SDS011;16639;51.488;0.152;2023-03-09T05:05:20;40.13;;;20.38;;
29730;SDS011;16639;51.488;0.152;2023-03-09T05:07:47;36.83;;;20.95;;
29730;SDS011;16639;51.488;0.152;2023-03-09T05:10:15;35.50;;;20.73;;
29730;SDS011;16639;51.488;0.152;2023-03-09T05:12:42;42.25;;;22.63;;
29730;SDS011;16639;51.488;0.152;2023-03-09T05:15:11;40.03;;;21.85;;
29730;SDS011;16639;51.488;0.152;2023-03-09T05:17:38;37.25;;;22.30;;
29730;SDS011;16639;51.488;0.152;2023-03-09T05:20:06;47.67;;;23.42;;
29730;SDS011;16639;51.488;0.152;2023-03-09T05:22:37;41.65;;;20.52;;
29730;SDS011;16639;51.488;0.152;2023-03-09T05:25:05;42.45;;;23.25;;
29730;SDS011;16639;51.488;0.152;2023-03-09T05:27:33;47.50;;;22.67;;
29730;SDS011;16639;51.488;0.152;2023-03-09T05:30:01;46.58;;;22.80;;
29730;SDS011;16639;51.488;0.152;2023-03-09T05:32:29;44.70;;;24.13;;
29730;SDS011;16639;51.488;0.152;2023-03-09T05:34:56;41.55;;;23.75;;
29730;SDS011;16639;51.488;0.152;2023-03-09T05:37:24;38.25;;;22.13;;
29730;SDS011;16639;51.488;0.152;2023-03-09T05:39:52;40.53;;;22.13;;
29730;SDS011;16639;51.488;0.152;2023-03-09T05:42:19;45.92;;;22.15;;
29730;SDS011;16639;51.488;0.152;2023-03-09T05:44:46;41.20;;;21.58;;
29730;SDS011;16639;51.488;0.152;2023-03-09T05:47:14;40.83;;;22.73;;
29730;SDS011;16639;51.488;0.152;2023-03-09T05:49:41;59.40;;;26.98;;
29730;SDS011;16639;51.488;0.152;2023-03-09T05:52:08;46.03;;;22.40;;
29730;SDS011;16639;51.488;0.152;2023-03-09T05:54:35;46.38;;;24.52;;
29730;SDS011;16639;51.488;0.152;2023-03-09T05:57:03;73.75;;;27.52;;
29730;SDS011;16639;51.488;0.152;2023-03-09T05:59:30;49.30;;;23.67;;
29730;SDS011;16639;51.488;0.152;2023-03-09T06:01:58;43.08;;;22.55;;
29730;SDS011;16639;51.488;0.152;2023-03-09T06:04:25;53.10;;;24.98;;
29730;SDS011;16639;51.488;0.152;2023-03-09T06:06:53;41.22;;;22.20;;
29730;SDS011;16639;51.488;0.152;2023-03-09T06:09:20;48.20;;;23.92;;
29730;SDS011;16639;51.488;0.152;2023-03-09T06:11:48;47.92;;;25.65;;
29730;SDS011;16639;51.488;0.152;2023-03-09T06:14:16;46.13;;;24.30;;
29730;SDS011;16639;51.488;0.152;2023-03-09T06:16:43;48.90;;;26.67;;
29730;SDS011;16639;51.488;0.152;2023-03-09T06:19:11;43.78;;;22.80;;
29730;SDS011;16639;51.488;0.152;2023-03-09T06:21:38;48.97;;;26.35;;
29730;SDS011;16639;51.488;0.152;2023-03-09T06:24:06;43.53;;;23.58;;
29730;SDS011;16639;51.488;0.152;2023-03-09T06:26:35;50.90;;;25.77;;
29730;SDS011;16639;51.488;0.152;2023-03-09T06:29:03;45.60;;;23.52;;
29730;SDS011;16639;51.488;0.152;2023-03-09T06:31:30;54.40;;;26.08;;
29730;SDS011;16639;51.488;0.152;2023-03-09T06:33:59;44.50;;;24.77;;
29730;SDS011;16639;51.488;0.152;2023-03-09T06:36:26;47.00;;;24.23;;
29730;SDS011;16639;51.488;0.152;2023-03-09T06:38:54;48.13;;;23.75;;
29730;SDS011;16639;51.488;0.152;2023-03-09T06:41:21;48.83;;;24.75;;
29730;SDS011;16639;51.488;0.152;2023-03-09T06:43:58;48.00;;;25.85;;
29730;SDS011;16639;51.488;0.152;2023-03-09T06:46:27;50.05;;;25.00;;
29730;SDS011;16639;51.488;0.152;2023-03-09T06:48:56;50.47;;;24.45;;
29730;SDS011;16639;51.488;0.152;2023-03-09T06:51:23;41.88;;;22.48;;
29730;SDS011;16639;51.488;0.152;2023-03-09T06:53:52;46.97;;;25.10;;
29730;SDS011;16639;51.488;0.152;2023-03-09T06:56:19;54.17;;;26.85;;
29730;SDS011;16639;51.488;0.152;2023-03-09T06:58:46;42.17;;;23.77;;
29730;SDS011;16639;51.488;0.152;2023-03-09T07:01:14;53.75;;;24.52;;
29730;SDS011;16639;51.488;0.152;2023-03-09T07:03:43;53.67;;;25.90;;
29730;SDS011;16639;51.488;0.152;2023-03-09T07:06:10;54.03;;;26.25;;
29730;SDS011;16639;51.488;0.152;2023-03-09T07:08:37;54.45;;;24.90;;
29730;SDS011;16639;51.488;0.152;2023-03-09T07:11:05;53.03;;;27.13;;
29730;SDS011;16639;51.488;0.152;2023-03-09T07:13:32;53.95;;;27.20;;
29730;SDS011;16639;51.488;0.152;2023-03-09T07:16:02;53.30;;;26.15;;
29730;SDS011;16639;51.488;0.152;2023-03-09T07:18:32;64.25;;;29.23;;
29730;SDS011;16639;51.488;0.152;2023-03-09T07:21:00;54.67;;;27.17;;
29730;SDS011;16639;51.488;0.152;2023-03-09T07:23:28;57.70;;;28.05;;
29730;SDS011;16639;51.488;0.152;2023-03-09T07:26:03;54.20;;;28.33;;
29730;SDS011;16639;51.488;0.152;2023-03-09T07:28:31;62.25;;;28.00;;
29730;SDS011;16639;51.488;0.152;2023-03-09T07:31:05;56.00;;;28.65;;
29730;SDS011;16639;51.488;0.152;2023-03-09T07:33:36;54.75;;;27.95;;
29730;SDS011;16639;51.488;0.152;2023-03-09T07:36:05;54.22;;;28.35;;
29730;SDS011;16639;51.488;0.152;2023-03-09T07:38:33;56.15;;;28.48;;
29730;SDS011;16639;51.488;0.152;2023-03-09T07:41:01;62.30;;;30.52;;
29730;SDS011;16639;51.488;0.152;2023-03-09T07:43:29;59.90;;;30.13;;
29730;SDS011;16639;51.488;0.152;2023-03-09T07:45:56;61.63;;;29.02;;
29730;SDS011;16639;51.488;0.152;2023-03-09T07:48:23;54.60;;;30.00;;
29730;SDS011;16639;51.488;0.152;2023-03-09T07:50:58;56.88;;;27.88;;
29730;SDS011;16639;51.488;0.152;2023-03-09T07:53:26;57.05;;;29.95;;
29730;SDS011;16639;51.488;0.152;2023-03-09T07:55:56;60.75;;;31.92;;
29730;SDS011;16639;51.488;0.152;2023-03-09T07:58:25;57.60;;;29.55;;
29730;SDS011;16639;51.488;0.152;2023-03-09T08:00:52;56.88;;;30.00;;
29730;SDS011;16639;51.488;0.152;2023-03-09T08:03:19;61.00;;;32.40;;
29730;SDS011;16639;51.488;0.152;2023-03-09T08:05:47;97.97;;;33.72;;
29730;SDS011;16639;51.488;0.152;2023-03-09T08:08:16;59.22;;;30.10;;
29730;SDS011;16639;51.488;0.152;2023-03-09T08:10:47;64.18;;;31.90;;
29730;SDS011;16639;51.488;0.152;2023-03-09T08:13:15;64.45;;;30.95;;
29730;SDS011;16639;51.488;0.152;2023-03-09T08:15:43;68.97;;;33.28;;
29730;SDS011;16639;51.488;0.152;2023-03-09T08:18:11;60.08;;;31.52;;
29730;SDS011;16639;51.488;0.152;2023-03-09T08:20:39;54.58;;;29.80;;
29730;SDS011;16639;51.488;0.152;2023-03-09T08:23:06;60.20;;;32.65;;
29730;SDS011;16639;51.488;0.152;2023-03-09T08:25:34;58.65;;;30.00;;
29730;SDS011;16639;51.488;0.152;2023-03-09T08:28:02;47.10;;;27.75;;
29730;SDS011;16639;51.488;0.152;2023-03-09T08:30:30;57.00;;;28.13;;
29730;SDS011;16639;51.488;0.152;2023-03-09T08:32:57;55.63;;;27.35;;
29730;SDS011;16639;51.488;0.152;2023-03-09T08:35:27;56.30;;;26.70;;
29730;SDS011;16639;51.488;0.152;2023-03-09T08:37:57;54.70;;;28.65;;
29730;SDS011;16639;51.488;0.152;2023-03-09T08:40:25;47.42;;;24.52;;
29730;SDS011;16639;51.488;0.152;2023-03-09T08:42:52;53.90;;;29.08;;
29730;SDS011;16639;51.488;0.152;2023-03-09T08:45:19;53.60;;;28.40;;
29730;SDS011;16639;51.488;0.152;2023-03-09T08:47:47;48.63;;;27.05;;
29730;SDS011;16639;51.488;0.152;2023-03-09T08:50:15;52.90;;;26.90;;
29730;SDS011;16639;51.488;0.152;2023-03-09T08:52:42;52.03;;;25.42;;
29730;SDS011;16639;51.488;0.152;2023-03-09T08:55:10;45.83;;;24.65;;
29730;SDS011;16639;51.488;0.152;2023-03-09T08:57:38;51.00;;;26.23;;
29730;SDS011;16639;51.488;0.152;2023-03-09T09:00:06;45.95;;;26.27;;
29730;SDS011;16639;51.488;0.152;2023-03-09T09:02:36;44.10;;;25.25;;
29730;SDS011;16639;51.488;0.152;2023-03-09T09:05:05;52.47;;;25.63;;
29730;SDS011;16639;51.488;0.152;2023-03-09T09:07:33;40.55;;;23.58;;
29730;SDS011;16639;51.488;0.152;2023-03-09T09:10:01;43.85;;;24.02;;
29730;SDS011;16639;51.488;0.152;2023-03-09T09:12:29;47.35;;;23.48;;
29730;SDS011;16639;51.488;0.152;2023-03-09T09:14:59;61.42;;;23.17;;
29730;SDS011;16639;51.488;0.152;2023-03-09T09:17:26;36.92;;;22.10;;
29730;SDS011;16639;51.488;0.152;2023-03-09T09:19:53;41.47;;;23.90;;
29730;SDS011;16639;51.488;0.152;2023-03-09T09:22:21;48.03;;;22.95;;
29730;SDS011;16639;51.488;0.152;2023-03-09T09:24:48;122.55;;;29.40;;
29730;SDS011;16639;51.488;0.152;2023-03-09T09:27:15;58.83;;;23.13;;
29730;SDS011;16639;51.488;0.152;2023-03-09T09:29:43;45.60;;;22.02;;
29730;SDS011;16639;51.488;0.152;2023-03-09T09:32:10;100.10;;;27.77;;
29730;SDS011;16639;51.488;0.152;2023-03-09T09:34:38;65.30;;;24.38;;
29730;SDS011;16639;51.488;0.152;2023-03-09T09:37:05;34.40;;;19.48;;
29730;SDS011;16639;51.488;0.152;2023-03-09T09:39:33;33.05;;;19.33;;
29730;SDS011;16639;51.488;0.152;2023-03-09T09:42:04;33.80;;;18.42;;
29730;SDS011;16639;51.488;0.152;2023-03-09T09:44:38;31.60;;;18.00;;
29730;SDS011;16639;51.488;0.152;2023-03-09T09:47:11;29.92;;;17.45;;
29730;SDS011;16639;51.488;0.152;2023-03-09T09:49:43;31.25;;;17.05;;
29730;SDS011;16639;51.488;0.152;2023-03-09T09:52:35;40.50;;;18.90;;
29730;SDS011;16639;51.488;0.152;2023-03-09T09:55:26;29.10;;;15.95;;
29730;SDS011;16639;51.488;0.152;2023-03-09T09:57:58;32.10;;;17.02;;
29730;SDS011;16639;51.488;0.152;2023-03-09T10:00:34;30.95;;;17.15;;
29730;SDS011;16639;51.488;0.152;2023-03-09T10:03:11;30.48;;;15.68;;
29730;SDS011;16639;51.488;0.152;2023-03-09T10:05:58;26.73;;;15.02;;
29730;SDS011;16639;51.488;0.152;2023-03-09T10:08:36;22.67;;;14.35;;
29730;SDS011;16639;51.488;0.152;2023-03-09T10:11:22;25.52;;;15.43;;
29730;SDS011;16639;51.488;0.152;2023-03-09T10:17:05;24.60;;;14.77;;
29730;SDS011;16639;51.488;0.152;2023-03-09T10:19:40;27.23;;;16.58;;
29730;SDS011;16639;51.488;0.152;2023-03-09T10:27:41;26.75;;;15.93;;
29730;SDS011;16639;51.488;0.152;2023-03-09T10:33:15;24.30;;;14.73;;
29730;SDS011;16639;51.488;0.152;2023-03-09T10:38:21;23.42;;;14.70;;
29730;SDS011;16639;51.488;0.152;2023-03-09T10:40:53;26.52;;;15.85;;
29730;SDS011;16639;51.488;0.152;2023-03-09T10:43:26;26.50;;;15.55;;
29730;SDS011;16639;51.488;0.152;2023-03-09T10:48:49;23.17;;;15.25;;
29730;SDS011;16639;51.488;0.152;2023-03-09T10:51:36;26.40;;;15.52;;
29730;SDS011;16639;51.488;0.152;2023-03-09T10:56:42;27.60;;;16.90;;
29730;SDS011;16639;51.488;0.152;2023-03-09T10:59:16;25.85;;;15.65;;
29730;SDS011;16639;51.488;0.152;2023-03-09T11:01:46;26.95;;;15.48;;
29730;SDS011;16639;51.488;0.152;2023-03-09T11:06:49;22.35;;;13.50;;
29730;SDS011;16639;51.488;0.152;2023-03-09T11:10:12;23.55;;;15.85;;
29730;SDS011;16639;51.488;0.152;2023-03-09T11:17:43;22.42;;;14.15;;
29730;SDS011;16639;51.488;0.152;2023-03-09T11:22:47;25.17;;;14.55;;
29730;SDS011;16639;51.488;0.152;2023-03-09T11:31:15;20.93;;;13.27;;
29730;SDS011;16639;51.488;0.152;2023-03-09T11:33:52;24.27;;;13.18;;
29730;SDS011;16639;51.488;0.152;2023-03-09T11:36:35;23.15;;;14.43;;
29730;SDS011;16639;51.488;0.152;2023-03-09T11:39:13;24.90;;;14.77;;
29730;SDS011;16639;51.488;0.152;2023-03-09T11:41:48;22.55;;;14.38;;
29730;SDS011;16639;51.488;0.152;2023-03-09T11:47:01;25.55;;;14.63;;
29730;SDS011;16639;51.488;0.152;2023-03-09T11:49:32;24.20;;;15.00;;
29730;SDS011;16639;51.488;0.152;2023-03-09T11:52:02;21.98;;;14.23;;
29730;SDS011;16639;51.488;0.152;2023-03-09T11:54:35;23.73;;;14.77;;
29730;SDS011;16639;51.488;0.152;2023-03-09T11:57:13;26.92;;;14.48;;
29730;SDS011;16639;51.488;0.152;2023-03-09T12:04:49;24.95;;;15.13;;
29730;SDS011;16639;51.488;0.152;2023-03-09T12:10:06;22.77;;;13.68;;
29730;SDS011;16639;51.488;0.152;2023-03-09T12:12:50;22.67;;;14.30;;
29730;SDS011;16639;51.488;0.152;2023-03-09T12:17:57;26.67;;;17.50;;
29730;SDS011;16639;51.488;0.152;2023-03-09T12:20:30;27.05;;;17.35;;
29730;SDS011;16639;51.488;0.152;2023-03-09T12:23:03;23.20;;;15.27;;
29730;SDS011;16639;51.488;0.152;2023-03-09T12:25:31;24.50;;;14.00;;
29730;SDS011;16639;51.488;0.152;2023-03-09T12:28:00;37.53;;;14.07;;
29730;SDS011;16639;51.488;0.152;2023-03-09T12:30:30;23.35;;;15.05;;
29730;SDS011;16639;51.488;0.152;2023-03-09T12:33:01;18.52;;;11.85;;
29730;SDS011;16639;51.488;0.152;2023-03-09T12:38:21;18.25;;;12.90;;
29730;SDS011;16639;51.488;0.152;2023-03-09T12:40:50;18.52;;;11.70;;
29730;SDS011;16639;51.488;0.152;2023-03-09T12:45:49;17.92;;;12.00;;
29730;SDS011;16639;51.488;0.152;2023-03-09T12:48:30;20.27;;;12.95;;
29730;SDS011;16639;51.488;0.152;2023-03-09T12:51:24;21.58;;;12.57;;
29730;SDS011;16639;51.488;0.152;2023-03-09T12:54:00;20.55;;;12.63;;
29730;SDS011;16639;51.488;0.152;2023-03-09T12:56:34;23.35;;;12.80;;
29730;SDS011;16639;51.488;0.152;2023-03-09T12:59:06;21.33;;;12.73;;
29730;SDS011;16639;51.488;0.152;2023-03-09T13:01:36;19.88;;;12.68;;
29730;SDS011;16639;51.488;0.152;2023-03-09T13:04:11;20.20;;;12.63;;
29730;SDS011;16639;51.488;0.152;2023-03-09T13:06:58;17.77;;;12.15;;
29730;SDS011;16639;51.488;0.152;2023-03-09T13:12:11;21.50;;;13.98;;
29730;SDS011;16639;51.488;0.152;2023-03-09T13:20:15;19.75;;;12.57;;
29730;SDS011;16639;51.488;0.152;2023-03-09T13:22:51;18.10;;;12.32;;
29730;SDS011;16639;51.488;0.152;2023-03-09T13:25:34;16.30;;;11.73;;
29730;SDS011;16639;51.488;0.152;2023-03-09T13:28:21;18.13;;;11.98;;
29730;SDS011;16639;51.488;0.152;2023-03-09T13:30:55;19.17;;;11.32;;
29730;SDS011;16639;51.488;0.152;2023-03-09T13:33:28;23.20;;;13.23;;
29730;SDS011;16639;51.488;0.152;2023-03-09T13:35:58;19.48;;;11.15;;
29730;SDS011;16639;51.488;0.152;2023-03-09T13:38:33;15.57;;;11.02;;
29730;SDS011;16639;51.488;0.152;2023-03-09T13:41:04;21.02;;;12.90;;
29730;SDS011;16639;51.488;0.152;2023-03-09T13:43:34;19.15;;;11.68;;
29730;SDS011;16639;51.488;0.152;2023-03-09T13:48:46;19.38;;;11.90;;
29730;SDS011;16639;51.488;0.152;2023-03-09T13:54:03;21.35;;;13.68;;
29730;SDS011;16639;51.488;0.152;2023-03-09T13:56:31;18.17;;;12.57;;
29730;SDS011;16639;51.488;0.152;2023-03-09T13:59:00;29.52;;;14.45;;
29730;SDS011;16639;51.488;0.152;2023-03-09T14:01:28;25.73;;;14.48;;
29730;SDS011;16639;51.488;0.152;2023-03-09T14:03:58;30.70;;;13.40;;
29730;SDS011;16639;51.488;0.152;2023-03-09T14:06:31;24.73;;;13.82;;
29730;SDS011;16639;51.488;0.152;2023-03-09T14:09:31;23.65;;;15.07;;
29730;SDS011;16639;51.488;0.152;2023-03-09T14:12:01;22.85;;;14.50;;
29730;SDS011;16639;51.488;0.152;2023-03-09T14:14:29;24.23;;;14.55;;
29730;SDS011;16639;51.488;0.152;2023-03-09T14:16:59;27.98;;;15.65;;
29730;SDS011;16639;51.488;0.152;2023-03-09T14:19:30;28.02;;;15.35;;
29730;SDS011;16639;51.488;0.152;2023-03-09T14:21:59;23.92;;;15.18;;
29730;SDS011;16639;51.488;0.152;2023-03-09T14:25:19;29.45;;;17.02;;
29730;SDS011;16639;51.488;0.152;2023-03-09T14:27:51;29.92;;;16.15;;
29730;SDS011;16639;51.488;0.152;2023-03-09T14:33:25;28.83;;;16.38;;
29730;SDS011;16639;51.488;0.152;2023-03-09T14:36:14;27.95;;;15.07;;
29730;SDS011;16639;51.488;0.152;2023-03-09T14:39:11;22.77;;;8.18;;
29730;SDS011;16639;51.488;0.152;2023-03-09T14:41:53;31.50;;;6.47;;
29730;SDS011;16639;51.488;0.152;2023-03-09T14:47:02;31.55;;;5.38;;
29730;SDS011;16639;51.488;0.152;2023-03-09T14:49:38;25.17;;;6.35;;
29730;SDS011;16639;51.488;0.152;2023-03-09T14:52:08;30.02;;;5.60;;
29730;SDS011;16639;51.488;0.152;2023-03-09T14:54:39;21.25;;;6.18;;
29730;SDS011;16639;51.488;0.152;2023-03-09T14:57:09;22.10;;;5.95;;
29730;SDS011;16639;51.488;0.152;2023-03-09T14:59:38;30.50;;;5.85;;
29730;SDS011;16639;51.488;0.152;2023-03-09T15:02:06;25.45;;;6.10;;
29730;SDS011;16639;51.488;0.152;2023-03-09T15:04:38;22.13;;;5.57;;
29730;SDS011;16639;51.488;0.152;2023-03-09T15:07:09;20.13;;;4.80;;
29730;SDS011;16639;51.488;0.152;2023-03-09T15:09:39;19.52;;;5.60;;
29730;SDS011;16639;51.488;0.152;2023-03-09T15:12:14;21.40;;;4.75;;
29730;SDS011;16639;51.488;0.152;2023-03-09T15:14:48;13.90;;;4.22;;
29730;SDS011;16639;51.488;0.152;2023-03-09T15:17:18;26.15;;;5.32;;
29730;SDS011;16639;51.488;0.152;2023-03-09T15:19:50;26.55;;;5.05;;
29730;SDS011;16639;51.488;0.152;2023-03-09T15:22:18;25.95;;;5.30;;
29730;SDS011;16639;51.488;0.152;2023-03-09T15:24:46;11.60;;;3.90;;
29730;SDS011;16639;51.488;0.152;2023-03-09T15:27:23;15.05;;;5.20;;
29730;SDS011;16639;51.488;0.152;2023-03-09T15:29:50;10.38;;;3.95;;
29730;SDS011;16639;51.488;0.152;2023-03-09T15:32:17;13.85;;;4.07;;
29730;SDS011;16639;51.488;0.152;2023-03-09T15:34:48;25.73;;;5.70;;
29730;SDS011;16639;51.488;0.152;2023-03-09T15:37:15;20.33;;;5.05;;
29730;SDS011;16639;51.488;0.152;2023-03-09T15:39:43;15.88;;;3.72;;
29730;SDS011;16639;51.488;0.152;2023-03-09T15:42:10;13.13;;;3.33;;
29730;SDS011;16639;51.488;0.152;2023-03-09T15:44:37;13.63;;;3.50;;
29730;SDS011;16639;51.488;0.152;2023-03-09T15:47:05;15.75;;;3.10;;
29730;SDS011;16639;51.488;0.152;2023-03-09T15:49:32;15.20;;;5.20;;
29730;SDS011;16639;51.488;0.152;2023-03-09T15:52:00;12.32;;;3.67;;
29730;SDS011;16639;51.488;0.152;2023-03-09T15:54:27;18.15;;;4.65;;
29730;SDS011;16639;51.488;0.152;2023-03-09T15:56:54;16.45;;;4.70;;
29730;SDS011;16639;51.488;0.152;2023-03-09T15:59:22;13.93;;;3.65;;
29730;SDS011;16639;51.488;0.152;2023-03-09T16:01:49;13.55;;;3.88;;
29730;SDS011;16639;51.488;0.152;2023-03-09T16:04:18;14.13;;;4.53;;